Time;durP1;ratioP1;P1;durP2;ratioP2;P2;SDS_P1;SDS_P2;PMS_P1;PMS_P2;Temp;Humidity;BMP_temperature;BMP_pressure;BME280_temperature;BME280_humidity;BME280_pressure;Samples;Min_cycle;Max_cycle;Signal;HPM_P1;HPM_P2
2022/05/20 00:04:05;;;;;;;;;;;;;;;;;;6038050;23;19921;-83
2022/05/20 00:06:48;;;;;;;;;;;;;;;;;;6047553;23;19997;-84
2022/05/20 00:09:21;;;;;;;;;;;;;;;;;;6087515;23;19920;-83
2022/05/20 00:15:21;;;;;;;;;;;;;;;;;;6114577;23;19917;-84
2022/05/20 01:04:35;;;;;;;;;;;;;;;;;;6228689;22;19919;-83
2022/05/20 01:07:01;;;;;;;;;;;;;;;;;;6228417;22;19972;-84
2022/05/20 01:09:27;;;;;;;;;;;;;;;;;;6229051;22;19919;-83
2022/05/20 01:11:53;;;;;;;;;;;;;;;;;;6259561;22;19919;-84
2022/05/20 01:14:19;;;;;;;;;;;;;;;;;;6255866;22;19957;-84
2022/05/20 01:19:43;;;;;;;;;;;;;;;;;;6221156;22;20252;-84
2022/05/20 01:22:09;;;;;;;;;;;;;;;;;;6232014;22;19919;-83
2022/05/20 01:24:36;;;;;;;;;;;;;;;;;;6202637;22;19923;-84
2022/05/20 01:27:08;;;;;;;;;;;;;;;;;;6206018;22;19915;-84
2022/05/20 01:29:34;;;;;;;;;;;;;;;;;;6202691;22;20620;-83
2022/05/20 01:31:59;;;;;;;;;;;;;;;;;;6230728;22;19930;-84
2022/05/20 01:34:28;;;;;;;;;;;;;;;;;;6203202;22;19927;-83
2022/05/20 01:36:54;;;;;;;;;;;;;;;;;;6231737;22;19929;-84
2022/05/20 01:39:43;;;;;;;;;;;;;;;;;;6229151;22;20347;-84
2022/05/20 01:42:35;;;;;;;;;;;;;;;;;;6102284;23;19947;-84
2022/05/20 01:45:23;;;;;;;;;;;;;;;;;;6112314;23;20378;-84
2022/05/20 01:48:05;;;;;;;;;;;;;;;;;;6232122;22;19920;-84
2022/05/20 01:57:29;;;;;;;;;;;;;;;;;;;;;
2022/05/20 02:00:31;;;;;;;;;;;;;;;;;;6115415;23;19944;-84
2022/05/20 02:03:19;;;;;;;;;;;;;;;;;;;;;
2022/05/20 02:05:55;;;;;;;;;;;;;;;;;;6136163;23;19920;-84
2022/05/20 02:11:32;;;;;;;;;;;;;;;;;;;;;
2022/05/20 02:17:51;;;;;;;;;;;;;;;;;;6030273;23;19960;-84
2022/05/20 02:23:59;;;;;;;;;;;;;;;;;;5989761;23;19922;-83
2022/05/20 02:32:19;;;;;;;;;;;;;;;;;;5981546;23;19926;-84
2022/05/20 02:35:06;;;;;;;;;;;;;;;;;;5934839;24;19926;-83
2022/05/20 02:37:50;;;;;;;;;;;;;;;;;;5885969;24;19926;-84
2022/05/20 02:40:43;;;;;;;;;;;;;;;;;;6035594;23;19948;-84
2022/05/20 02:43:40;;;;;;;;;;;;;;;;;;;;;
2022/05/20 02:46:43;;;;;;;;;;;;;;;;;;6113565;23;19967;-84
2022/05/20 02:49:24;;;;;;;;;;;;;;;;;;6076739;23;19921;-84
2022/05/20 03:05:41;;;;;;;;;;;;;;;;;;6168763;23;19923;-83
2022/05/20 03:08:07;;;;;;;;;;;;;;;;;;6170928;23;19919;-83
2022/05/20 03:10:33;;;;;;;;;;;;;;;;;;6142682;23;19920;-83
2022/05/20 03:12:59;;;;;;;;;;;;;;;;;;6170322;23;20359;-83
2022/05/20 03:15:25;;;;;;;;;;;;;;;;;;6168867;23;19922;-83
2022/05/20 03:17:51;;;;;;;;;;;;;;;;;;6170018;23;19920;-83
2022/05/20 03:20:17;;;;;;;;;;;;;;;;;;6143615;23;19919;-83
2022/05/20 03:22:43;;;;;;;;;;;;;;;;;;6145856;23;19974;-83
2022/05/20 03:25:09;;;;;;;;;;;;;;;;;;6145412;23;20298;-83
2022/05/20 03:27:37;;;;;;;;;;;;;;;;;;6169606;23;19981;-83
2022/05/20 03:30:03;;;;;;;;;;;;;;;;;;6169920;23;19920;-83
2022/05/20 03:32:29;;;;;;;;;;;;;;;;;;6144005;23;19938;-83
2022/05/20 03:34:56;;;;;;;;;;;;;;;;;;6172105;23;19923;-83
2022/05/20 03:37:22;;;;;;;;;;;;;;;;;;6168266;23;19922;-83
2022/05/20 03:39:48;;;;;;;;;;;;;;;;;;6170238;23;19919;-83
2022/05/20 03:42:14;;;;;;;;;;;;;;;;;;6181675;23;19923;-83
2022/05/20 03:44:40;;;;;;;;;;;;;;;;;;6199640;23;19923;-83
2022/05/20 03:47:06;;;;;;;;;;;;;;;;;;6200162;23;19919;-83
2022/05/20 03:49:32;;;;;;;;;;;;;;;;;;6173514;23;19926;-83
2022/05/20 03:51:58;;;;;;;;;;;;;;;;;;6226928;23;19920;-83
2022/05/20 03:54:24;;;;;;;;;;;;;;;;;;6198265;23;19966;-83
2022/05/20 03:56:50;;;;;;;;;;;;;;;;;;6175182;23;20256;-83
2022/05/20 03:59:16;;;;;;;;;;;;;;;;;;6172950;23;21787;-84
2022/05/20 04:01:57;;;;;;;;;;;;;;;;;;6243873;22;19946;-83
2022/05/20 04:04:23;;;;;;;;;;;;;;;;;;6202539;22;19919;-83
2022/05/20 04:06:52;;;;;;;;;;;;;;;;;;6230033;22;20802;-83
2022/05/20 04:09:18;;;;;;;;;;;;;;;;;;6253703;22;19922;-83
2022/05/20 04:11:45;;;;;;;;;;;;;;;;;;6231948;22;19986;-83
2022/05/20 04:14:13;;;;;;;;;;;;;;;;;;6256058;22;19925;-83
2022/05/20 04:16:39;;;;;;;;;;;;;;;;;;6207659;22;19931;-83
2022/05/20 04:19:05;;;;;;;;;;;;;;;;;;6259207;22;20286;-83
2022/05/20 04:21:31;;;;;;;;;;;;;;;;;;6254644;22;19993;-83
2022/05/20 04:23:57;;;;;;;;;;;;;;;;;;6229311;22;19923;-83
2022/05/20 04:26:23;;;;;;;;;;;;;;;;;;6227838;22;19925;-83
2022/05/20 04:28:49;;;;;;;;;;;;;;;;;;6258995;22;19919;-83
2022/05/20 04:31:15;;;;;;;;;;;;;;;;;;6228863;22;19942;-83
2022/05/20 04:33:41;;;;;;;;;;;;;;;;;;6227820;22;19923;-83
2022/05/20 04:36:07;;;;;;;;;;;;;;;;;;6205686;22;19919;-83
2022/05/20 04:38:33;;;;;;;;;;;;;;;;;;6229376;22;19923;-83
2022/05/20 04:49:12;;;;;;;;;;;;;;;;;;6230518;22;19925;-83
2022/05/20 04:51:38;;;;;;;;;;;;;;;;;;6258617;22;20044;-83
2022/05/20 04:56:49;;;;;;;;;;;;;;;;;;6258759;22;19927;-83
2022/05/20 04:59:15;;;;;;;;;;;;;;;;;;6258607;22;20240;-83
2022/05/20 05:01:41;;;;;;;;;;;;;;;;;;6231590;22;19924;-83
2022/05/20 05:04:07;;;;;;;;;;;;;;;;;;6259923;22;19915;-83
2022/05/20 05:06:33;;;;;;;;;;;;;;;;;;6230061;22;20388;-83
2022/05/20 05:08:59;;;;;;;;;;;;;;;;;;6260002;22;19919;-83
2022/05/20 05:11:25;;;;;;;;;;;;;;;;;;6206850;22;19927;-83
2022/05/20 05:13:51;;;;;;;;;;;;;;;;;;6232276;22;19927;-83
2022/05/20 05:16:17;;;;;;;;;;;;;;;;;;6259970;22;19919;-83
2022/05/20 05:18:43;;;;;;;;;;;;;;;;;;6260801;22;19926;-83
2022/05/20 05:21:09;;;;;;;;;;;;;;;;;;6262802;22;19962;-83
2022/05/20 05:23:35;;;;;;;;;;;;;;;;;;6260794;22;19919;-83
2022/05/20 05:26:02;;;;;;;;;;;;;;;;;;6261048;22;19919;-83
2022/05/20 05:28:28;;;;;;;;;;;;;;;;;;6231639;22;19919;-83
2022/05/20 05:30:54;;;;;;;;;;;;;;;;;;6233231;22;19919;-83
2022/05/20 05:33:20;;;;;;;;;;;;;;;;;;6231501;22;19919;-83
2022/05/20 05:35:46;;;;;;;;;;;;;;;;;;6232322;22;19942;-83
2022/05/20 05:38:12;;;;;;;;;;;;;;;;;;6259471;22;19919;-84
2022/05/20 05:40:38;;;;;;;;;;;;;;;;;;6258104;22;19924;-83
2022/05/20 05:43:05;;;;;;;;;;;;;;;;;;6231108;22;20579;-83
2022/05/20 05:45:31;;;;;;;;;;;;;;;;;;6258631;22;19919;-83
2022/05/20 05:47:57;;;;;;;;;;;;;;;;;;6204508;22;20700;-83
2022/05/20 05:50:23;;;;;;;;;;;;;;;;;;6229805;22;19919;-83
2022/05/20 05:52:49;;;;;;;;;;;;;;;;;;6261357;22;19925;-83
2022/05/20 05:55:15;;;;;;;;;;;;;;;;;;6260664;22;19919;-83
2022/05/20 05:57:41;;;;;;;;;;;;;;;;;;6236446;22;19919;-83
2022/05/20 06:00:07;;;;;;;;;;;;;;;;;;6234183;22;19919;-83
2022/05/20 06:02:33;;;;;;;;;;;;;;;;;;6231294;22;20488;-83
2022/05/20 06:04:59;;;;;;;;;;;;;;;;;;6211628;22;19930;-83
2022/05/20 06:07:25;;;;;;;;;;;;;;;;;;6206393;22;19926;-83
2022/05/20 06:09:51;;;;;;;;;;;;;;;;;;6207672;22;19954;-83
2022/05/20 06:12:17;;;;;;;;;;;;;;;;;;6257433;22;19947;-84
2022/05/20 06:14:43;;;;;;;;;;;;;;;;;;6262965;22;20388;-83
2022/05/20 06:17:09;;;;;;;;;;;;;;;;;;6262452;22;20328;-83
2022/05/20 06:19:35;;;;;;;;;;;;;;;;;;6236542;22;20285;-83
2022/05/20 06:22:01;;;;;;;;;;;;;;;;;;6238965;22;19919;-84
2022/05/20 06:24:27;;;;;;;;;;;;;;;;;;6236022;22;19994;-84
2022/05/20 06:26:54;;;;;;;;;;;;;;;;;;6238928;22;19926;-84
2022/05/20 06:29:20;;;;;;;;;;;;;;;;;;6237308;22;19930;-84
2022/05/20 06:31:46;;;;;;;;;;;;;;;;;;6214680;22;19994;-84
2022/05/20 06:34:12;;;;;;;;;;;;;;;;;;6242565;22;19915;-84
2022/05/20 06:42:07;;;;;;;;;;;;;;;;;;6238259;22;19915;-84
2022/05/20 06:44:33;;;;;;;;;;;;;;;;;;6236894;22;19976;-84
2022/05/20 06:47:02;;;;;;;;;;;;;;;;;;6213584;22;19919;-81
2022/05/20 06:49:28;;;;;;;;;;;;;;;;;;6236346;22;19915;-80
2022/05/20 06:51:56;;;;;;;;;;;;;;;;;;6266400;22;19953;-81
2022/05/20 06:54:22;;;;;;;;;;;;;;;;;;6263869;22;20327;-80
2022/05/20 06:56:48;;;;;;;;;;;;;;;;;;6267941;22;19915;-81
2022/05/20 06:59:14;;;;;;;;;;;;;;;;;;6266369;22;19946;-80
2022/05/20 07:01:40;;;;;;;;;;;;;;;;;;6267750;22;19986;-80
2022/05/20 07:04:06;;;;;;;;;;;;;;;;;;6268752;22;19919;-80
2022/05/20 07:06:32;;;;;;;;;;;;;;;;;;6266332;22;19947;-81
2022/05/20 07:08:58;;;;;;;;;;;;;;;;;;6265573;22;20328;-80
2022/05/20 07:11:31;;;;;;;;;;;;;;;;;;6263956;22;19920;-81
2022/05/20 07:14:08;;;;;;;;;;;;;;;;;;6243229;22;19941;-81
2022/05/20 07:16:33;;;;;;;;;;;;;;;;;;6266103;22;20260;-82
2022/05/20 07:18:59;;;;;;;;;;;;;;;;;;6268895;22;19968;-82
2022/05/20 07:21:25;;;;;;;;;;;;;;;;;;6240843;22;19923;-82
2022/05/20 07:23:51;;;;;;;;;;;;;;;;;;6240982;22;19919;-81
2022/05/20 07:26:17;;;;;;;;;;;;;;;;;;6240385;22;19923;-81
2022/05/20 07:28:43;;;;;;;;;;;;;;;;;;6241753;22;19997;-81
2022/05/20 07:31:09;;;;;;;;;;;;;;;;;;6266676;22;20230;-81
2022/05/20 07:33:37;;;;;;;;;;;;;;;;;;6211396;22;19987;-84
2022/05/20 07:36:03;;;;;;;;;;;;;;;;;;6214783;22;19927;-84
2022/05/20 07:38:29;;;;;;;;;;;;;;;;;;6211017;22;19915;-84
2022/05/20 07:40:56;;;;;;;;;;;;;;;;;;6213931;22;20029;-84
2022/05/20 07:43:24;;;;;;;;;;;;;;;;;;6238326;22;19915;-85
2022/05/20 07:45:52;;;;;;;;;;;;;;;;;;6240192;22;19919;-85
2022/05/20 07:48:19;;;;;;;;;;;;;;;;;;6213552;22;20320;-85
2022/05/20 07:50:45;;;;;;;;;;;;;;;;;;6216490;22;19915;-85
2022/05/20 07:53:20;;;;;;;;;;;;;;;;;;6242144;22;19950;-85
2022/05/20 07:55:46;;;;;;;;;;;;;;;;;;6241572;22;19934;-85
2022/05/20 07:58:12;;;;;;;;;;;;;;;;;;6241093;22;19926;-85
2022/05/20 08:00:38;;;;;;;;;;;;;;;;;;6215912;22;19926;-85
2022/05/20 08:03:04;;;;;;;;;;;;;;;;;;6215979;22;19919;-85
2022/05/20 08:05:30;;;;;;;;;;;;;;;;;;6214312;22;20615;-85
2022/05/20 08:08:04;;;;;;;;;;;;;;;;;;6216987;22;19922;-85
2022/05/20 08:10:31;;;;;;;;;;;;;;;;;;6213165;22;19994;-85
2022/05/20 08:12:57;;;;;;;;;;;;;;;;;;6216630;22;19919;-85
2022/05/20 08:15:23;;;;;;;;;;;;;;;;;;6240007;22;19919;-85
2022/05/20 08:17:49;;;;;;;;;;;;;;;;;;6216931;22;19941;-85
2022/05/20 08:20:18;;;;;;;;;;;;;;;;;;6266740;22;20595;-85
2022/05/20 08:22:44;;;;;;;;;;;;;;;;;;6241296;22;20300;-85
2022/05/20 08:25:10;;;;;;;;;;;;;;;;;;6241888;22;19962;-85
2022/05/20 08:27:35;;;;;;;;;;;;;;;;;;6266662;22;20033;-85
2022/05/20 08:30:01;;;;;;;;;;;;;;;;;;6242187;22;19915;-85
2022/05/20 08:32:27;;;;;;;;;;;;;;;;;;6238662;22;19915;-85
2022/05/20 08:34:53;;;;;;;;;;;;;;;;;;6241603;22;20236;-85
2022/05/20 08:37:19;;;;;;;;;;;;;;;;;;6238490;22;20384;-85
2022/05/20 08:39:45;;;;;;;;;;;;;;;;;;6268546;22;19919;-85
2022/05/20 08:42:11;;;;;;;;;;;;;;;;;;6239976;22;19930;-85
2022/05/20 08:44:37;;;;;;;;;;;;;;;;;;6215815;22;19915;-85
2022/05/20 08:47:03;;;;;;;;;;;;;;;;;;6268735;22;19942;-85
2022/05/20 08:49:29;;;;;;;;;;;;;;;;;;6265516;22;19923;-86
2022/05/20 08:51:55;;;;;;;;;;;;;;;;;;6215108;22;19922;-86
2022/05/20 08:54:21;;;;;;;;;;;;;;;;;;6213606;22;19923;-86
2022/05/20 08:56:50;;;;;;;;;;;;;;;;;;6214958;22;20365;-85
2022/05/20 08:59:16;;;;;;;;;;;;;;;;;;6212959;22;19919;-86
2022/05/20 09:01:45;;;;;;;;;;;;;;;;;;6215731;22;19925;-86
2022/05/20 09:04:14;;;;;;;;;;;;;;;;;;6213700;22;19964;-86
2022/05/20 09:06:40;;;;;;;;;;;;;;;;;;6216226;22;20355;-85
2022/05/20 09:09:06;;;;;;;;;;;;;;;;;;6215580;22;19920;-86
2022/05/20 09:11:35;;;;;;;;;;;;;;;;;;6238226;22;19919;-86
2022/05/20 09:16:55;;;;;;;;;;;;;;;;;;6241228;22;20336;-86
2022/05/20 09:19:21;;;;;;;;;;;;;;;;;;6237589;22;19994;-86
2022/05/20 09:21:52;;;;;;;;;;;;;;;;;;6241347;22;19958;-85
2022/05/20 09:24:18;;;;;;;;;;;;;;;;;;6237712;22;20251;-85
2022/05/20 09:26:44;;;;;;;;;;;;;;;;;;6242941;22;19958;-85
2022/05/20 09:29:10;;;;;;;;;;;;;;;;;;6242845;22;20364;-85
2022/05/20 09:31:41;;;;;;;;;;;;;;;;;;6241029;22;19919;-85
2022/05/20 09:34:07;;;;;;;;;;;;;;;;;;6242617;22;20290;-85
2022/05/20 09:36:36;;;;;;;;;;;;;;;;;;6215848;22;19968;-85
2022/05/20 09:39:02;;;;;;;;;;;;;;;;;;6243967;22;20335;-85
2022/05/20 09:41:28;;;;;;;;;;;;;;;;;;6215736;22;19931;-85
2022/05/20 09:43:54;;;;;;;;;;;;;;;;;;6217781;22;19970;-86
2022/05/20 09:46:21;;;;;;;;;;;;;;;;;;6214201;22;19919;-85
2022/05/20 09:48:47;;;;;;;;;;;;;;;;;;6241546;22;19919;-86
2022/05/20 09:51:13;;;;;;;;;;;;;;;;;;6213384;22;19922;-87
2022/05/20 09:53:39;;;;;;;;;;;;;;;;;;6237860;22;20343;-86
2022/05/20 09:56:05;;;;;;;;;;;;;;;;;;6238163;22;19919;-85
2022/05/20 09:58:34;;;;;;;;;;;;;;;;;;6212598;22;20852;-86
2022/05/20 10:01:06;;;;;;;;;;;;;;;;;;6239739;22;20501;-85
2022/05/20 10:03:35;;;;;;;;;;;;;;;;;;6236903;22;20175;-86
2022/05/20 10:06:01;;;;;;;;;;;;;;;;;;6213974;22;19919;-85
2022/05/20 10:08:30;;;;;;;;;;;;;;;;;;6213543;22;19915;-85
2022/05/20 10:10:59;;;;;;;;;;;;;;;;;;6215700;22;20394;-87
2022/05/20 10:13:28;;;;;;;;;;;;;;;;;;6211963;22;19961;-86
2022/05/20 10:15:54;;;;;;;;;;;;;;;;;;6213453;22;19981;-86
2022/05/20 10:18:22;;;;;;;;;;;;;;;;;;6239355;22;20426;-85
2022/05/20 10:20:48;;;;;;;;;;;;;;;;;;6216965;22;19941;-85
2022/05/20 10:23:14;;;;;;;;;;;;;;;;;;6240166;22;19915;-86
2022/05/20 10:25:40;;;;;;;;;;;;;;;;;;6218083;22;19928;-85
2022/05/20 10:28:06;;;;;;;;;;;;;;;;;;6242938;22;19919;-85
2022/05/20 10:33:20;;;;;;;;;;;;;;;;;;6239255;22;19921;-85
2022/05/20 10:35:46;;;;;;;;;;;;;;;;;;6241436;22;20465;-84
2022/05/20 10:38:12;;;;;;;;;;;;;;;;;;6216178;22;19919;-85
2022/05/20 10:40:38;;;;;;;;;;;;;;;;;;6217959;22;20244;-85
2022/05/20 10:43:04;;;;;;;;;;;;;;;;;;6243035;22;19922;-84
2022/05/20 10:51:00;;;;;;;;;;;;;;;;;;6242770;22;20247;-85
2022/05/20 10:53:26;;;;;;;;;;;;;;;;;;6239227;22;19926;-85
2022/05/20 10:55:55;;;;;;;;;;;;;;;;;;6217413;22;19926;-85
2022/05/20 10:58:20;;;;;;;;;;;;;;;;;;6239471;22;19926;-85
2022/05/20 11:00:47;;;;;;;;;;;;;;;;;;6241296;22;20260;-85
2022/05/20 11:03:13;;;;;;;;;;;;;;;;;;6236847;22;20260;-84
2022/05/20 11:05:39;;;;;;;;;;;;;;;;;;6216451;22;19986;-84
2022/05/20 11:08:05;;;;;;;;;;;;;;;;;;6238803;22;19957;-84
2022/05/20 11:10:31;;;;;;;;;;;;;;;;;;6211730;22;19919;-82
2022/05/20 11:12:56;;;;;;;;;;;;;;;;;;6239392;22;19915;-82
2022/05/20 11:15:23;;;;;;;;;;;;;;;;;;6212171;22;20320;-82
2022/05/20 11:17:49;;;;;;;;;;;;;;;;;;6240793;22;19919;-82
2022/05/20 11:20:15;;;;;;;;;;;;;;;;;;6267217;22;19922;-82
2022/05/20 11:22:41;;;;;;;;;;;;;;;;;;6266036;22;19923;-82
2022/05/20 11:25:07;;;;;;;;;;;;;;;;;;6240738;22;20300;-82
2022/05/20 11:27:33;;;;;;;;;;;;;;;;;;6213262;22;19919;-82
2022/05/20 11:30:00;;;;;;;;;;;;;;;;;;6239831;22;19938;-84
2022/05/20 11:32:26;;;;;;;;;;;;;;;;;;6236718;22;19969;-82
2022/05/20 11:34:52;;;;;;;;;;;;;;;;;;6238843;22;19919;-82
2022/05/20 11:37:18;;;;;;;;;;;;;;;;;;6237043;22;19980;-82
2022/05/20 11:39:44;;;;;;;;;;;;;;;;;;6241491;22;19919;-82
2022/05/20 11:42:11;;;;;;;;;;;;;;;;;;6240718;22;19920;-82
2022/05/20 11:44:39;;;;;;;;;;;;;;;;;;6239154;22;20383;-82
2022/05/20 11:47:05;;;;;;;;;;;;;;;;;;6241926;22;19962;-82
2022/05/20 11:49:31;;;;;;;;;;;;;;;;;;6239686;22;20247;-82
2022/05/20 11:51:57;;;;;;;;;;;;;;;;;;6241097;22;20298;-82
2022/05/20 11:54:23;;;;;;;;;;;;;;;;;;6212602;22;20389;-82
2022/05/20 11:56:49;;;;;;;;;;;;;;;;;;6215536;22;19946;-82
2022/05/20 11:59:16;;;;;;;;;;;;;;;;;;6211445;22;19919;-82
2022/05/20 12:01:42;;;;;;;;;;;;;;;;;;6240015;22;19919;-82
2022/05/20 12:04:09;;;;;;;;;;;;;;;;;;6215780;22;19915;-82
2022/05/20 12:06:35;;;;;;;;;;;;;;;;;;6212960;22;20336;-82
2022/05/20 12:09:01;;;;;;;;;;;;;;;;;;6241936;22;19919;-82
2022/05/20 12:11:27;;;;;;;;;;;;;;;;;;6236957;22;19915;-82
2022/05/20 12:13:53;;;;;;;;;;;;;;;;;;6238344;22;19938;-82
2022/05/20 12:16:18;;;;;;;;;;;;;;;;;;6239004;22;19922;-82
2022/05/20 12:24:15;;;;;;;;;;;;;;;;;;6238745;22;19998;-82
2022/05/20 12:26:41;;;;;;;;;;;;;;;;;;6240970;22;20355;-82
2022/05/20 12:29:07;;;;;;;;;;;;;;;;;;6241033;22;19915;-81
2022/05/20 12:31:33;;;;;;;;;;;;;;;;;;6213581;22;19981;-82
2022/05/20 12:34:00;;;;;;;;;;;;;;;;;;6240674;22;19919;-82
2022/05/20 12:36:26;;;;;;;;;;;;;;;;;;6235967;22;20221;-81
2022/05/20 12:38:52;;;;;;;;;;;;;;;;;;6241071;22;19916;-81
2022/05/20 12:41:18;;;;;;;;;;;;;;;;;;6238085;22;20252;-82
2022/05/20 12:43:45;;;;;;;;;;;;;;;;;;6267386;22;19927;-82
2022/05/20 12:46:14;;;;;;;;;;;;;;;;;;6269180;22;19919;-82
2022/05/20 12:48:40;;;;;;;;;;;;;;;;;;6240173;22;19923;-82
2022/05/20 12:51:06;;;;;;;;;;;;;;;;;;6211807;22;19991;-82
2022/05/20 12:53:31;;;;;;;;;;;;;;;;;;6265804;22;20072;-81
2022/05/20 12:55:57;;;;;;;;;;;;;;;;;;6240126;22;19915;-82
2022/05/20 12:58:23;;;;;;;;;;;;;;;;;;6265112;22;20229;-81
2022/05/20 13:00:49;;;;;;;;;;;;;;;;;;6267531;22;19927;-81
2022/05/20 13:03:15;;;;;;;;;;;;;;;;;;6266521;22;19923;-81
2022/05/20 13:05:41;;;;;;;;;;;;;;;;;;6243014;22;19919;-81
2022/05/20 13:08:08;;;;;;;;;;;;;;;;;;6242455;22;19925;-81
2022/05/20 13:10:33;;;;;;;;;;;;;;;;;;6237043;22;19919;-81
2022/05/20 13:12:59;;;;;;;;;;;;;;;;;;6240255;22;20241;-81
2022/05/20 13:15:25;;;;;;;;;;;;;;;;;;6240550;22;19915;-82
2022/05/20 13:17:51;;;;;;;;;;;;;;;;;;6217316;22;19915;-81
2022/05/20 13:20:17;;;;;;;;;;;;;;;;;;6240541;22;19925;-81
2022/05/20 13:22:43;;;;;;;;;;;;;;;;;;6242669;22;19919;-81
2022/05/20 13:25:09;;;;;;;;;;;;;;;;;;6214780;22;19930;-81
2022/05/20 13:27:35;;;;;;;;;;;;;;;;;;6238344;22;19981;-81
2022/05/20 13:30:01;;;;;;;;;;;;;;;;;;6242113;22;20328;-80
2022/05/20 13:32:27;;;;;;;;;;;;;;;;;;6238206;22;20358;-81
2022/05/20 13:34:53;;;;;;;;;;;;;;;;;;6239724;22;20043;-81
2022/05/20 13:37:19;;;;;;;;;;;;;;;;;;6236485;22;19982;-80
2022/05/20 13:39:45;;;;;;;;;;;;;;;;;;6241142;22;19915;-81
2022/05/20 13:42:11;;;;;;;;;;;;;;;;;;6269518;22;19994;-81
2022/05/20 13:44:37;;;;;;;;;;;;;;;;;;6238610;22;19915;-81
2022/05/20 13:49:48;;;;;;;;;;;;;;;;;;6262838;22;19957;-81
2022/05/20 13:52:15;;;;;;;;;;;;;;;;;;6257530;22;19919;-82
2022/05/20 13:54:41;;;;;;;;;;;;;;;;;;6235889;22;19950;-82
2022/05/20 13:57:07;;;;;;;;;;;;;;;;;;6233644;22;19920;-83
2022/05/20 13:59:33;;;;;;;;;;;;;;;;;;6233605;22;19919;-83
2022/05/20 14:01:59;;;;;;;;;;;;;;;;;;6214453;22;19934;-83
2022/05/20 14:04:25;;;;;;;;;;;;;;;;;;6206713;22;19989;-84
2022/05/20 14:06:51;;;;;;;;;;;;;;;;;;6237351;22;19965;-84
2022/05/20 14:09:17;;;;;;;;;;;;;;;;;;6211615;22;19915;-84
2022/05/20 14:11:43;;;;;;;;;;;;;;;;;;6234457;22;20462;-84
2022/05/20 14:14:09;;;;;;;;;;;;;;;;;;6236412;22;20220;-84
2022/05/20 14:16:35;;;;;;;;;;;;;;;;;;6234309;22;20343;-84
2022/05/20 14:19:01;;;;;;;;;;;;;;;;;;6237158;22;19915;-85
2022/05/20 14:21:27;;;;;;;;;;;;;;;;;;6236591;22;19923;-84
2022/05/20 14:23:54;;;;;;;;;;;;;;;;;;6212663;22;20515;-84
2022/05/20 14:26:20;;;;;;;;;;;;;;;;;;6234715;22;19927;-85
2022/05/20 14:28:45;;;;;;;;;;;;;;;;;;6212109;22;19919;-84
2022/05/20 14:31:11;;;;;;;;;;;;;;;;;;6236017;22;19915;-84
2022/05/20 14:33:37;;;;;;;;;;;;;;;;;;6235909;22;19919;-84
2022/05/20 14:36:03;;;;;;;;;;;;;;;;;;6214224;22;20003;-84
2022/05/20 14:38:29;;;;;;;;;;;;;;;;;;6209402;22;19923;-84
2022/05/20 14:40:55;;;;;;;;;;;;;;;;;;6210412;22;20713;-84
2022/05/20 14:43:21;;;;;;;;;;;;;;;;;;6212843;22;19922;-85
2022/05/20 14:45:47;;;;;;;;;;;;;;;;;;6211951;22;19916;-85
2022/05/20 14:48:13;;;;;;;;;;;;;;;;;;6209180;22;20028;-85
2022/05/20 14:50:39;;;;;;;;;;;;;;;;;;6212292;22;19923;-85
2022/05/20 14:53:06;;;;;;;;;;;;;;;;;;6261751;22;20359;-85
2022/05/20 14:55:32;;;;;;;;;;;;;;;;;;6211017;22;19918;-85
2022/05/20 14:58:00;;;;;;;;;;;;;;;;;;6214227;22;19969;-85
2022/05/20 15:00:28;;;;;;;;;;;;;;;;;;6237656;22;19924;-85
2022/05/20 15:02:55;;;;;;;;;;;;;;;;;;6239285;22;20296;-85
2022/05/20 15:05:21;;;;;;;;;;;;;;;;;;6260945;22;19998;-85
2022/05/20 15:07:47;;;;;;;;;;;;;;;;;;6236676;22;19950;-85
2022/05/20 15:10:12;;;;;;;;;;;;;;;;;;6265306;22;20343;-86
2022/05/20 15:12:38;;;;;;;;;;;;;;;;;;6234012;22;19919;-86
2022/05/20 15:15:04;;;;;;;;;;;;;;;;;;6207594;22;19920;-87
2022/05/20 15:17:31;;;;;;;;;;;;;;;;;;6259952;22;19919;-85
2022/05/20 15:19:57;;;;;;;;;;;;;;;;;;6235492;22;19930;-86
2022/05/20 15:22:23;;;;;;;;;;;;;;;;;;6205722;22;19923;-85
2022/05/20 15:24:49;;;;;;;;;;;;;;;;;;6232443;22;20014;-85
2022/05/20 15:27:15;;;;;;;;;;;;;;;;;;6230843;22;19919;-85
2022/05/20 15:29:41;;;;;;;;;;;;;;;;;;6207385;22;19919;-86
2022/05/20 15:34:52;;;;;;;;;;;;;;;;;;6231972;22;19992;-87
2022/05/20 15:37:18;;;;;;;;;;;;;;;;;;6204837;22;19922;-87
2022/05/20 15:39:44;;;;;;;;;;;;;;;;;;6208731;22;20236;-87
2022/05/20 15:42:11;;;;;;;;;;;;;;;;;;6233226;22;19926;-87
2022/05/20 15:44:38;;;;;;;;;;;;;;;;;;6209961;22;19919;-87
2022/05/20 15:47:04;;;;;;;;;;;;;;;;;;6234235;22;20058;-86
2022/05/20 15:49:30;;;;;;;;;;;;;;;;;;6232348;22;19954;-86
2022/05/20 15:51:56;;;;;;;;;;;;;;;;;;6208690;22;20351;-86
2022/05/20 15:54:22;;;;;;;;;;;;;;;;;;6205084;22;19961;-86
2022/05/20 15:56:48;;;;;;;;;;;;;;;;;;6232647;22;19919;-86
2022/05/20 15:59:15;;;;;;;;;;;;;;;;;;6257538;22;19926;-87
2022/05/20 16:01:41;;;;;;;;;;;;;;;;;;6259970;22;19969;-85
2022/05/20 16:04:07;;;;;;;;;;;;;;;;;;6261121;22;19927;-86
2022/05/20 16:06:33;;;;;;;;;;;;;;;;;;6230831;22;20813;-85
2022/05/20 16:08:59;;;;;;;;;;;;;;;;;;6231691;22;19957;-86
2022/05/20 16:11:25;;;;;;;;;;;;;;;;;;6259456;22;19919;-86
2022/05/20 16:13:50;;;;;;;;;;;;;;;;;;6208661;22;19915;-85
2022/05/20 16:16:16;;;;;;;;;;;;;;;;;;6232376;22;19981;-86
2022/05/20 16:18:42;;;;;;;;;;;;;;;;;;6207312;22;19923;-86
2022/05/20 16:21:08;;;;;;;;;;;;;;;;;;6209604;22;19962;-86
2022/05/20 16:23:34;;;;;;;;;;;;;;;;;;6230478;22;20336;-85
2022/05/20 16:26:00;;;;;;;;;;;;;;;;;;6236936;22;19919;-85
2022/05/20 16:28:26;;;;;;;;;;;;;;;;;;6231712;22;19926;-85
2022/05/20 16:30:52;;;;;;;;;;;;;;;;;;6235036;22;19923;-85
2022/05/20 16:33:18;;;;;;;;;;;;;;;;;;6257120;22;20294;-85
2022/05/20 16:35:44;;;;;;;;;;;;;;;;;;6260767;22;20286;-85
2022/05/20 16:38:10;;;;;;;;;;;;;;;;;;6232834;22;20009;-84
2022/05/20 16:40:36;;;;;;;;;;;;;;;;;;6231038;22;19919;-85
2022/05/20 16:43:02;;;;;;;;;;;;;;;;;;6210086;22;19923;-85
2022/05/20 16:45:28;;;;;;;;;;;;;;;;;;6207817;22;19919;-85
2022/05/20 16:47:54;;;;;;;;;;;;;;;;;;6234781;22;19915;-85
2022/05/20 16:50:20;;;;;;;;;;;;;;;;;;6260507;22;19922;-84
2022/05/20 16:52:46;;;;;;;;;;;;;;;;;;6234306;22;19978;-85
2022/05/20 16:55:12;;;;;;;;;;;;;;;;;;6236733;22;19919;-85
2022/05/20 17:03:07;;;;;;;;;;;;;;;;;;6265726;22;20008;-84
2022/05/20 17:05:33;;;;;;;;;;;;;;;;;;6237813;22;19919;-84
2022/05/20 17:07:59;;;;;;;;;;;;;;;;;;6211185;22;19929;-84
2022/05/20 17:10:26;;;;;;;;;;;;;;;;;;6233541;22;19919;-85
2022/05/20 17:12:52;;;;;;;;;;;;;;;;;;6210116;22;19919;-84
2022/05/20 17:15:18;;;;;;;;;;;;;;;;;;6232106;22;20286;-84
2022/05/20 17:17:44;;;;;;;;;;;;;;;;;;6232916;22;19919;-84
2022/05/20 17:20:10;;;;;;;;;;;;;;;;;;6232722;22;19919;-84
2022/05/20 17:25:21;;;;;;;;;;;;;;;;;;6230989;22;20320;-85
2022/05/20 17:27:47;;;;;;;;;;;;;;;;;;6234562;22;19921;-84
2022/05/20 17:30:15;;;;;;;;;;;;;;;;;;6230805;22;20211;-85
2022/05/20 17:32:41;;;;;;;;;;;;;;;;;;6206704;22;19993;-84
2022/05/20 17:35:07;;;;;;;;;;;;;;;;;;6234474;22;19958;-84
2022/05/20 17:37:33;;;;;;;;;;;;;;;;;;6231668;22;19919;-84
2022/05/20 17:39:59;;;;;;;;;;;;;;;;;;6208382;22;20048;-84
2022/05/20 17:42:25;;;;;;;;;;;;;;;;;;6204966;22;20026;-84
2022/05/20 17:44:53;;;;;;;;;;;;;;;;;;6231506;22;19926;-84
2022/05/20 17:47:19;;;;;;;;;;;;;;;;;;6206599;22;19919;-85
2022/05/20 17:49:45;;;;;;;;;;;;;;;;;;6236969;22;19926;-84
2022/05/20 17:52:15;;;;;;;;;;;;;;;;;;6209234;22;19919;-84
2022/05/20 17:54:43;;;;;;;;;;;;;;;;;;6209528;22;20221;-84
2022/05/20 17:57:08;;;;;;;;;;;;;;;;;;6211207;22;19916;-84
2022/05/20 17:59:34;;;;;;;;;;;;;;;;;;6233337;22;20022;-84
2022/05/20 18:02:00;;;;;;;;;;;;;;;;;;6234654;22;19923;-85
2022/05/20 18:04:27;;;;;;;;;;;;;;;;;;6233478;22;19950;-85
2022/05/20 18:06:53;;;;;;;;;;;;;;;;;;6210627;22;19919;-84
2022/05/20 18:09:21;;;;;;;;;;;;;;;;;;6231727;22;20341;-85
2022/05/20 18:14:41;;;;;;;;;;;;;;;;;;6263916;22;19933;-85
2022/05/20 18:17:07;;;;;;;;;;;;;;;;;;6235540;22;19919;-85
2022/05/20 18:19:34;;;;;;;;;;;;;;;;;;6205873;22;19956;-84
2022/05/20 18:22:03;;;;;;;;;;;;;;;;;;6260097;22;19973;-85
2022/05/20 18:24:29;;;;;;;;;;;;;;;;;;6230888;22;19927;-84
2022/05/20 18:26:55;;;;;;;;;;;;;;;;;;6234803;22;20605;-84
2022/05/20 18:29:21;;;;;;;;;;;;;;;;;;6259356;22;19942;-84
2022/05/20 18:31:47;;;;;;;;;;;;;;;;;;6236021;22;20052;-84
2022/05/20 18:39:42;;;;;;;;;;;;;;;;;;6261076;22;19916;-84
2022/05/20 18:42:08;;;;;;;;;;;;;;;;;;6234258;22;20225;-84
2022/05/20 18:44:34;;;;;;;;;;;;;;;;;;6257058;22;19965;-86
2022/05/20 18:47:00;;;;;;;;;;;;;;;;;;6237717;22;19919;-85
2022/05/20 18:49:26;;;;;;;;;;;;;;;;;;6237361;22;19919;-85
2022/05/20 18:51:52;;;;;;;;;;;;;;;;;;6236913;22;19915;-85
2022/05/20 18:54:18;;;;;;;;;;;;;;;;;;6209562;22;19920;-85
2022/05/20 18:56:44;;;;;;;;;;;;;;;;;;6237425;22;20369;-85
2022/05/20 18:59:10;;;;;;;;;;;;;;;;;;6235998;22;20321;-85
2022/05/20 19:01:36;;;;;;;;;;;;;;;;;;6234746;22;19972;-85
2022/05/20 19:04:02;;;;;;;;;;;;;;;;;;6236214;22;19923;-85
2022/05/20 19:06:28;;;;;;;;;;;;;;;;;;6260293;22;19920;-85
2022/05/20 19:08:54;;;;;;;;;;;;;;;;;;6265504;22;19923;-85
2022/05/20 19:11:24;;;;;;;;;;;;;;;;;;6262964;22;19919;-85
2022/05/20 19:13:49;;;;;;;;;;;;;;;;;;6264919;22;20585;-85
2022/05/20 19:16:15;;;;;;;;;;;;;;;;;;6235466;22;19919;-86